Grimshaw, Canada
Current Conditions -  °F | °C
As of 12:00 AM on Friday 31 Oct 2014 (Local Time) from CYPE Reporting Station
Broken Clouds Broken Clouds  
Wind Chill: 25°   Ceiling: 9000
Heat Index: 32°   Visibility: 15mi
Dew Point: 30°   Wind: 8mph
Humidity: 93%   Direction: 100°E
Pressure: 29.68"   Gusts: NA
Location:  56.18°N, 117.6°W
Report Text: CYPE 310600Z 10007KT 15SM BKN090 00/M01 A2968 RMK AC7 SLP077
Loading
Personal Weather Stations






























Interactive Weather Map
Tropical Storm Tracking
New forecast layout! Learn more

10-Day Weather Forecast

Advertisements
Track Severe Weather on mobile